createdAt,value
2022-11-07T00:00:16.857Z,15.85
2022-11-07T00:02:46.584Z,15.52
2022-11-07T00:05:16.671Z,15.48
2022-11-07T00:07:46.955Z,16.95
2022-11-07T00:10:16.641Z,14.95
2022-11-07T00:12:46.541Z,15.60
2022-11-07T00:15:16.335Z,15.77
2022-11-07T00:17:46.160Z,15.45
2022-11-07T00:20:16.149Z,15.88
2022-11-07T00:22:46.054Z,15.45
2022-11-07T00:25:16.262Z,15.00
2022-11-07T00:27:46.094Z,15.63
2022-11-07T00:30:19.176Z,15.70
2022-11-07T00:32:49.136Z,15.40
2022-11-07T00:35:18.898Z,16.00
2022-11-07T00:37:46.024Z,15.57
2022-11-07T00:40:16.110Z,15.68
2022-11-07T00:42:46.122Z,15.63
2022-11-07T00:45:15.805Z,15.52
2022-11-07T00:47:45.548Z,16.92
2022-11-07T00:50:15.369Z,15.55
2022-11-07T00:52:45.015Z,15.57
2022-11-07T00:55:15.099Z,15.40
2022-11-07T00:57:44.778Z,15.25
2022-11-07T01:00:15.258Z,15.90
2022-11-07T01:03:05.222Z,14.85
2022-11-07T01:05:35.267Z,14.95
2022-11-07T01:08:06.718Z,14.73
2022-11-07T01:10:41.873Z,15.65
2022-11-07T01:13:12.070Z,15.32
2022-11-07T01:15:42.899Z,14.77
2022-11-07T01:18:13.338Z,14.13
2022-11-07T01:20:43.766Z,14.45
2022-11-07T01:23:14.237Z,15.48
2022-11-07T01:25:44.729Z,14.30
2022-11-07T01:28:15.741Z,14.35
2022-11-07T01:30:46.390Z,15.65
2022-11-07T01:33:16.930Z,13.43
2022-11-07T01:35:47.162Z,12.75
2022-11-07T01:38:17.139Z,13.68
2022-11-07T01:41:05.667Z,14.55
2022-11-07T01:44:06.921Z,13.82
2022-11-07T01:46:47.731Z,14.32
2022-11-07T01:49:29.831Z,13.20
2022-11-07T01:52:12.350Z,14.32
2022-11-07T01:55:16.394Z,12.70
2022-11-07T01:58:03.213Z,13.48
2022-11-07T02:00:35.969Z,12.73
2022-11-07T02:03:20.212Z,13.10
2022-11-07T02:06:04.977Z,13.35
2022-11-07T02:08:40.283Z,12.60
2022-11-07T02:11:13.784Z,13.35
2022-11-07T02:13:42.585Z,13.30
2022-11-07T02:16:12.906Z,13.25
2022-11-07T02:18:46.491Z,12.60
2022-11-07T02:21:59.025Z,12.93
2022-11-07T02:24:40.009Z,11.52
2022-11-07T02:27:19.064Z,11.75
2022-11-07T02:30:02.811Z,12.38
2022-11-07T02:32:33.111Z,12.32
2022-11-07T02:35:48.087Z,11.88
2022-11-07T02:38:33.678Z,11.45
2022-11-07T02:41:29.469Z,10.70
2022-11-07T02:44:12.415Z,10.75
2022-11-07T02:46:42.752Z,11.20
2022-11-07T02:49:12.961Z,11.68
2022-11-07T02:51:43.026Z,11.20
2022-11-07T02:54:13.006Z,11.68
2022-11-07T02:56:42.685Z,11.05
2022-11-07T02:59:12.397Z,11.23
2022-11-07T03:01:42.278Z,10.77
2022-11-07T03:04:12.436Z,11.57
2022-11-07T03:06:42.267Z,11.40
2022-11-07T03:09:11.905Z,10.82
2022-11-07T03:11:41.565Z,11.40
2022-11-07T03:14:11.574Z,10.40
2022-11-07T03:16:41.318Z,9.95
2022-11-07T03:19:11.212Z,10.55
2022-11-07T03:21:40.986Z,9.55
2022-11-07T03:24:10.830Z,11.23
2022-11-07T03:26:40.753Z,11.73
2022-11-07T03:29:11.484Z,11.00
2022-11-07T03:31:41.578Z,10.25
2022-11-07T03:34:11.714Z,10.88
2022-11-07T03:36:41.822Z,10.07
2022-11-07T03:39:11.631Z,9.43
2022-11-07T03:41:41.436Z,10.48
2022-11-07T03:44:11.222Z,11.18
2022-11-07T03:46:41.040Z,10.77
2022-11-07T03:49:13.351Z,10.10
2022-11-07T03:51:40.499Z,9.93
2022-11-07T03:54:10.635Z,10.02
2022-11-07T03:56:40.892Z,10.63
2022-11-07T03:59:10.872Z,9.60
2022-11-07T04:01:40.848Z,11.20
2022-11-07T04:04:10.829Z,9.52
2022-11-07T04:06:40.715Z,9.45
2022-11-07T04:09:10.696Z,8.90
2022-11-07T04:12:01.725Z,10.45
2022-11-07T04:14:47.691Z,10.02
2022-11-07T04:17:20.984Z,9.77
2022-11-07T04:19:55.776Z,9.93
2022-11-07T04:22:27.183Z,9.90
2022-11-07T04:24:59.911Z,10.63
2022-11-07T04:27:46.959Z,9.82
2022-11-07T04:30:19.424Z,9.40
2022-11-07T04:32:59.015Z,9.43
2022-11-07T04:35:33.489Z,9.82
2022-11-07T04:38:03.651Z,9.73
2022-11-07T04:40:33.782Z,9.68
2022-11-07T04:43:09.296Z,10.32
2022-11-07T04:45:41.254Z,9.00
2022-11-07T04:48:12.931Z,9.82
2022-11-07T04:50:44.798Z,9.38
2022-11-07T04:53:18.943Z,9.82
2022-11-07T04:55:49.211Z,10.02
2022-11-07T04:58:19.241Z,9.63
2022-11-07T05:00:49.450Z,9.60
2022-11-07T05:03:19.736Z,9.75
2022-11-07T05:05:50.103Z,8.90
2022-11-07T05:08:20.296Z,9.57
2022-11-07T05:10:50.313Z,9.50
2022-11-07T05:13:20.270Z,8.85
2022-11-07T05:15:51.063Z,8.52
2022-11-07T05:18:21.346Z,8.40
2022-11-07T05:20:51.459Z,9.48
2022-11-07T05:23:22.207Z,8.90
2022-11-07T05:25:54.875Z,8.50
2022-11-07T05:28:38.702Z,8.63
2022-11-07T05:31:17.048Z,8.70
2022-11-07T05:33:46.290Z,8.55
2022-11-07T05:36:24.936Z,8.88
2022-11-07T05:38:53.957Z,9.05
2022-11-07T05:41:24.046Z,10.27
2022-11-07T05:43:53.870Z,8.95
2022-11-07T05:46:23.914Z,9.07
2022-11-07T05:48:59.588Z,8.85
2022-11-07T05:51:30.882Z,8.88
2022-11-07T05:54:00.894Z,8.80
2022-11-07T05:56:30.712Z,9.38
2022-11-07T05:59:00.568Z,9.18
2022-11-07T06:01:30.781Z,8.15
2022-11-07T06:04:00.865Z,8.57
2022-11-07T06:06:31.855Z,7.93
2022-11-07T06:09:01.902Z,8.13
2022-11-07T06:16:55.604Z,8.70
2022-11-07T06:19:24.351Z,8.45
2022-11-07T06:21:54.116Z,8.02
2022-11-07T06:24:23.888Z,8.65
2022-11-07T06:26:54.182Z,8.45
2022-11-07T06:29:23.997Z,8.48
2022-11-07T06:31:54.212Z,8.48
2022-11-07T06:34:23.727Z,7.75
2022-11-07T06:37:02.471Z,7.55
2022-11-07T06:39:33.025Z,7.72
2022-11-07T06:42:03.067Z,8.23
2022-11-07T06:44:32.725Z,7.53
2022-11-07T06:47:03.585Z,7.60
2022-11-07T06:49:33.015Z,8.15
2022-11-07T06:52:02.409Z,7.57
2022-11-07T06:54:32.462Z,6.78
2022-11-07T06:57:02.198Z,7.38
2022-11-07T06:59:34.625Z,6.22
2022-11-07T07:02:02.079Z,6.90
2022-11-07T07:04:32.046Z,7.07
2022-11-07T07:07:01.771Z,7.13
2022-11-07T07:09:31.669Z,6.80
2022-11-07T07:12:01.659Z,6.60
2022-11-07T07:14:31.422Z,6.38
2022-11-07T07:17:01.144Z,6.20
2022-11-07T07:19:31.085Z,6.78
2022-11-07T07:22:00.883Z,6.03
2022-11-07T07:24:30.558Z,5.88
2022-11-07T07:27:00.268Z,6.22
2022-11-07T07:29:30.268Z,5.50
2022-11-07T07:31:59.820Z,6.30
2022-11-07T07:34:29.594Z,6.18
2022-11-07T07:36:59.282Z,5.70
2022-11-07T07:39:29.062Z,6.13
2022-11-07T07:42:01.797Z,5.60
2022-11-07T07:44:31.742Z,5.22
2022-11-07T07:47:04.929Z,5.68
2022-11-07T07:49:38.968Z,4.40
2022-11-07T07:52:08.929Z,5.20
2022-11-07T07:54:38.926Z,5.40
2022-11-07T07:57:09.013Z,4.78
2022-11-07T07:59:38.984Z,5.45
2022-11-07T08:02:12.548Z,5.80
2022-11-07T08:04:43.181Z,5.22
2022-11-07T08:07:13.195Z,4.80
2022-11-07T08:09:43.179Z,4.90
2022-11-07T08:12:17.440Z,5.13
2022-11-07T08:14:47.427Z,5.00
2022-11-07T08:17:17.423Z,5.25
2022-11-07T08:19:47.419Z,4.55
2022-11-07T08:22:17.553Z,4.65
2022-11-07T08:24:50.264Z,5.32
2022-11-07T08:27:20.268Z,4.25
2022-11-07T08:29:50.239Z,4.95
2022-11-07T08:32:20.236Z,4.22
2022-11-07T08:34:50.498Z,4.18
2022-11-07T08:37:20.699Z,4.28
2022-11-07T08:39:50.851Z,4.32
2022-11-07T08:42:23.918Z,4.00
2022-11-07T08:44:53.881Z,4.55
2022-11-07T08:47:23.963Z,4.25
2022-11-07T08:49:54.196Z,4.30
2022-11-07T08:52:24.154Z,4.30
2022-11-07T08:54:54.184Z,4.28
2022-11-07T08:57:24.167Z,3.50
2022-11-07T08:59:54.155Z,3.85
2022-11-07T09:03:17.745Z,3.70
2022-11-07T09:05:14.421Z,3.67
2022-11-07T09:07:44.379Z,3.50
2022-11-07T09:10:14.619Z,3.22
2022-11-07T09:12:50.107Z,4.18
2022-11-07T09:15:21.368Z,3.17
2022-11-07T09:17:51.503Z,2.97
2022-11-07T09:20:21.699Z,3.58
2022-11-07T09:22:58.742Z,3.20
2022-11-07T09:25:29.158Z,2.92
2022-11-07T09:28:03.436Z,3.38
2022-11-07T09:30:33.674Z,3.15
2022-11-07T09:33:03.752Z,3.03
2022-11-07T09:35:33.849Z,3.35
2022-11-07T09:38:03.855Z,3.33
2022-11-07T09:40:56.193Z,3.30
2022-11-07T09:43:53.282Z,3.75
2022-11-07T09:47:05.677Z,3.28
2022-11-07T09:49:55.937Z,3.03
2022-11-07T09:53:27.646Z,3.13
2022-11-07T09:56:05.457Z,2.90
2022-11-07T09:58:52.223Z,2.93
2022-11-07T10:01:22.999Z,2.67
2022-11-07T10:04:23.143Z,2.63
2022-11-07T10:07:07.767Z,2.50
2022-11-07T10:10:13.132Z,2.78
2022-11-07T10:13:47.927Z,2.63
2022-11-07T10:17:17.358Z,2.60
2022-11-07T10:20:23.509Z,2.60
2022-11-07T10:23:50.192Z,2.67
2022-11-07T10:26:27.282Z,2.72
2022-11-07T10:29:15.621Z,2.13
2022-11-07T10:32:26.821Z,2.50
2022-11-07T10:35:34.215Z,2.58
2022-11-07T10:38:25.657Z,2.22
2022-11-07T10:40:58.744Z,2.40
2022-11-07T10:43:43.296Z,2.10
2022-11-07T10:46:43.803Z,2.25
2022-11-07T10:49:32.866Z,2.03
2022-11-07T10:52:20.361Z,2.40
2022-11-07T10:54:50.418Z,1.90
2022-11-07T10:57:23.874Z,2.28
2022-11-07T10:59:57.883Z,1.65
2022-11-07T11:02:53.229Z,2.00
2022-11-07T11:05:31.886Z,1.90
2022-11-07T11:08:27.621Z,2.00
2022-11-07T11:10:58.212Z,1.77
2022-11-07T11:13:34.765Z,2.05
2022-11-07T11:16:14.543Z,1.63
2022-11-07T11:18:59.605Z,2.20
2022-11-07T11:21:44.242Z,2.03
2022-11-07T11:24:40.293Z,2.10
2022-11-07T11:27:25.925Z,2.20
2022-11-07T11:30:14.757Z,2.05
2022-11-07T11:33:21.466Z,2.30
2022-11-07T11:36:16.436Z,1.77
2022-11-07T11:38:55.942Z,1.90
2022-11-07T11:41:53.133Z,1.80
2022-11-07T11:44:45.993Z,2.08
2022-11-07T11:47:34.672Z,1.90
2022-11-07T11:50:18.045Z,2.13
2022-11-07T11:52:48.404Z,1.65
2022-11-07T11:55:28.169Z,2.33
2022-11-07T11:58:29.792Z,2.03
2022-11-07T12:01:42.956Z,2.25
2022-11-07T12:05:14.616Z,1.90
2022-11-07T12:08:20.873Z,1.98
2022-11-07T12:11:27.078Z,2.00
2022-11-07T12:14:28.009Z,2.03
2022-11-07T12:17:34.960Z,2.22
2022-11-07T12:20:29.056Z,2.10
2022-11-07T12:23:43.412Z,1.90
2022-11-07T12:26:34.929Z,2.20
2022-11-07T12:30:21.503Z,2.38
2022-11-07T12:33:51.659Z,1.52
2022-11-07T12:37:15.855Z,1.75
2022-11-07T12:40:25.587Z,2.00
2022-11-07T12:43:43.169Z,1.80
2022-11-07T12:47:11.283Z,2.25
2022-11-07T12:50:30.883Z,2.45
2022-11-07T12:53:28.557Z,2.28
2022-11-07T12:56:27.358Z,2.13
2022-11-07T12:59:01.115Z,2.25
2022-11-07T13:01:56.235Z,1.83
2022-11-07T13:05:13.398Z,1.88
2022-11-07T13:08:07.807Z,2.08
2022-11-07T13:11:23.413Z,2.20
2022-11-07T13:14:27.110Z,2.05
2022-11-07T13:17:24.923Z,1.90
2022-11-07T13:20:20.555Z,2.10
2022-11-07T13:22:56.519Z,2.95
2022-11-07T13:25:34.906Z,2.05
2022-11-07T13:28:56.990Z,1.92
2022-11-07T13:31:40.493Z,1.80
2022-11-07T13:34:20.199Z,2.38
2022-11-07T13:37:02.490Z,2.50
2022-11-07T13:39:34.472Z,2.08
2022-11-07T13:42:07.204Z,2.15
2022-11-07T13:44:39.177Z,2.00
2022-11-07T13:47:28.046Z,2.28
2022-11-07T13:50:21.430Z,2.08
2022-11-07T13:53:17.553Z,2.28
2022-11-07T13:56:15.077Z,2.58
2022-11-07T13:58:47.030Z,1.60
2022-11-07T14:01:17.455Z,2.38
2022-11-07T14:03:47.597Z,2.22
2022-11-07T14:06:18.343Z,1.98
2022-11-07T14:08:49.030Z,2.30
2022-11-07T14:11:23.705Z,1.70
2022-11-07T14:13:55.540Z,2.17
2022-11-07T14:16:31.084Z,2.13
2022-11-07T14:19:15.078Z,2.03
2022-11-07T14:21:47.455Z,1.92
2022-11-07T14:24:34.218Z,2.00
2022-11-07T14:27:16.113Z,2.22
2022-11-07T14:30:00.133Z,2.03
2022-11-07T14:32:32.127Z,1.70
2022-11-07T14:35:09.022Z,2.30
2022-11-07T14:37:39.039Z,1.98
2022-11-07T14:40:11.237Z,1.88
2022-11-07T14:42:45.679Z,2.83
2022-11-07T14:45:46.860Z,2.13
2022-11-07T14:48:20.156Z,1.80
2022-11-07T14:50:50.873Z,2.80
2022-11-07T14:53:33.933Z,2.75
2022-11-07T14:56:17.004Z,2.53
2022-11-07T14:58:47.724Z,2.55
2022-11-07T15:01:34.478Z,3.00
2022-11-07T15:04:31.617Z,2.75
2022-11-07T15:07:31.906Z,3.20
2022-11-07T15:10:34.377Z,2.67
2022-11-07T15:13:25.085Z,1.80
2022-11-07T15:16:14.314Z,1.98
2022-11-07T15:21:50.105Z,2.03
2022-11-07T15:24:47.507Z,2.08
2022-11-07T15:27:33.659Z,2.50
2022-11-07T15:30:24.961Z,2.65
2022-11-07T15:32:58.009Z,2.50
2022-11-07T15:35:45.036Z,2.70
2022-11-07T15:38:24.687Z,2.38
2022-11-07T15:40:55.655Z,2.90
2022-11-07T15:43:25.793Z,2.10
2022-11-07T15:45:57.580Z,2.22
2022-11-07T15:48:39.811Z,2.10
2022-11-07T15:51:11.630Z,2.40
2022-11-07T15:53:41.693Z,2.35
2022-11-07T15:56:20.604Z,2.25
2022-11-07T15:58:55.142Z,4.20
2022-11-07T16:01:25.249Z,1.92
2022-11-07T16:03:55.647Z,2.30
2022-11-07T16:06:32.011Z,2.33
2022-11-07T16:09:04.273Z,2.80
2022-11-07T16:11:34.330Z,2.58
2022-11-07T16:14:34.462Z,2.50
2022-11-07T16:16:55.215Z,1.85
2022-11-07T16:19:30.985Z,2.30
2022-11-07T16:22:00.961Z,2.03
2022-11-07T16:24:30.975Z,2.17
2022-11-07T16:27:01.153Z,2.72
2022-11-07T16:29:32.134Z,2.50
2022-11-07T16:32:02.203Z,2.15
2022-11-07T16:34:32.149Z,3.40
2022-11-07T16:37:02.118Z,2.33
2022-11-07T16:39:32.144Z,2.50
2022-11-07T16:42:02.260Z,2.65
2022-11-07T16:44:32.251Z,2.55
2022-11-07T16:47:03.035Z,3.42
2022-11-07T16:49:33.988Z,2.53
2022-11-07T16:52:04.974Z,2.30
2022-11-07T16:54:35.032Z,2.30
2022-11-07T16:57:05.119Z,2.03
2022-11-07T16:59:35.155Z,2.65
2022-11-07T17:02:22.341Z,2.42
2022-11-07T17:04:54.787Z,2.50
2022-11-07T17:07:24.939Z,2.53
2022-11-07T17:09:54.972Z,2.80
2022-11-07T17:12:24.894Z,2.42
2022-11-07T17:14:55.611Z,3.03
2022-11-07T17:17:25.960Z,2.72
2022-11-07T17:19:55.656Z,2.72
2022-11-07T17:22:25.954Z,2.80
2022-11-07T17:24:55.450Z,3.25
2022-11-07T17:27:28.496Z,3.50
2022-11-07T17:29:58.610Z,3.80
2022-11-07T17:32:28.653Z,3.22
2022-11-07T17:35:25.467Z,4.22
2022-11-07T17:37:48.787Z,3.53
2022-11-07T17:40:29.583Z,4.18
2022-11-07T17:43:02.978Z,3.60
2022-11-07T17:45:30.475Z,3.25
2022-11-07T17:47:58.813Z,3.03
2022-11-07T17:50:28.768Z,2.80
2022-11-07T17:52:58.579Z,3.13
2022-11-07T17:55:28.441Z,3.63
2022-11-07T17:57:58.388Z,2.85
2022-11-07T18:00:28.278Z,3.63
2022-11-07T18:02:58.185Z,3.42
2022-11-07T18:05:33.458Z,3.22
2022-11-07T18:08:03.705Z,2.90
2022-11-07T18:10:33.649Z,2.92
2022-11-07T18:13:03.320Z,2.92
2022-11-07T18:15:33.190Z,3.15
2022-11-07T18:18:14.848Z,3.33
2022-11-07T18:20:43.931Z,3.13
2022-11-07T18:23:13.586Z,3.25
2022-11-07T18:25:41.364Z,3.75
2022-11-07T18:28:11.239Z,2.70
2022-11-07T18:30:41.043Z,2.95
2022-11-07T18:33:10.805Z,6.15
2022-11-07T18:35:41.561Z,5.03
2022-11-07T18:38:11.573Z,4.18
2022-11-07T18:40:41.426Z,4.70
2022-11-07T18:43:12.064Z,5.53
2022-11-07T18:45:43.736Z,3.78
2022-11-07T18:48:12.226Z,3.30
2022-11-07T18:50:42.175Z,3.00
2022-11-07T18:53:12.080Z,2.80
2022-11-07T18:55:42.149Z,3.53
2022-11-07T18:58:12.174Z,3.20
2022-11-07T19:00:44.601Z,3.35
2022-11-07T19:03:14.927Z,2.60
2022-11-07T19:05:45.317Z,3.00
2022-11-07T19:08:15.730Z,2.97
2022-11-07T19:10:45.762Z,2.92
2022-11-07T19:13:15.421Z,4.80
2022-11-07T19:15:45.164Z,8.25
2022-11-07T19:18:15.550Z,3.90
2022-11-07T19:20:45.408Z,2.70
2022-11-07T19:23:15.644Z,2.40
2022-11-07T19:25:45.972Z,4.20
2022-11-07T19:28:16.773Z,3.22
2022-11-07T19:30:45.961Z,3.17
2022-11-07T19:33:18.507Z,3.22
2022-11-07T19:35:47.549Z,2.85
2022-11-07T19:38:17.357Z,3.08
2022-11-07T19:40:49.550Z,2.70
2022-11-07T19:43:20.128Z,2.90
2022-11-07T19:45:50.189Z,2.92
2022-11-07T19:48:20.359Z,3.30
2022-11-07T19:50:50.361Z,6.00
2022-11-07T19:53:21.619Z,3.10
2022-11-07T19:55:51.715Z,3.10
2022-11-07T19:58:21.504Z,3.30
2022-11-07T20:00:51.522Z,2.45
2022-11-07T20:03:21.757Z,3.08
2022-11-07T20:05:55.103Z,3.50
2022-11-07T20:08:27.401Z,3.20
2022-11-07T20:10:57.410Z,3.28
2022-11-07T20:13:27.122Z,3.38
2022-11-07T20:15:58.864Z,3.05
2022-11-07T20:18:28.033Z,2.75
2022-11-07T20:21:12.913Z,2.95
2022-11-07T20:23:46.264Z,2.67
2022-11-07T20:26:25.071Z,3.13
2022-11-07T20:28:55.172Z,2.83
2022-11-07T20:31:34.923Z,2.70
2022-11-07T20:34:11.642Z,2.65
2022-11-07T20:36:42.697Z,3.08
2022-11-07T20:39:14.090Z,3.35
2022-11-07T20:41:44.186Z,3.20
2022-11-07T20:44:16.187Z,6.13
2022-11-07T20:46:46.456Z,3.20
2022-11-07T20:49:21.294Z,3.67
2022-11-07T20:51:52.635Z,3.13
2022-11-07T20:54:22.787Z,3.40
2022-11-07T20:56:52.625Z,3.22
2022-11-07T20:59:22.590Z,3.53
2022-11-07T21:01:52.876Z,2.88
2022-11-07T21:04:22.059Z,3.80
2022-11-07T21:06:51.827Z,2.50
2022-11-07T21:09:23.503Z,2.72
2022-11-07T21:11:51.453Z,2.92
2022-11-07T21:14:21.166Z,2.92
2022-11-07T21:16:50.912Z,2.92
2022-11-07T21:19:18.579Z,2.83
2022-11-07T21:24:18.673Z,3.20
2022-11-07T21:26:48.391Z,2.92
2022-11-07T21:29:18.485Z,2.65
2022-11-07T21:31:48.345Z,3.03
2022-11-07T21:34:18.159Z,2.80
2022-11-07T21:36:47.920Z,3.35
2022-11-07T21:39:20.673Z,3.30
2022-11-07T21:41:50.734Z,2.85
2022-11-07T21:44:17.704Z,2.65
2022-11-07T21:46:47.591Z,3.00
2022-11-07T21:49:17.663Z,2.70
2022-11-07T21:51:51.458Z,3.30
2022-11-07T21:54:19.920Z,2.80
2022-11-07T21:56:49.493Z,2.95
2022-11-07T21:59:19.656Z,3.15
2022-11-07T22:01:50.087Z,3.40
2022-11-07T22:04:20.116Z,4.00
2022-11-07T22:06:51.640Z,3.40
2022-11-07T22:09:22.496Z,3.38
2022-11-07T22:11:51.938Z,2.60
2022-11-07T22:14:23.305Z,2.95
2022-11-07T22:16:56.210Z,2.63
2022-11-07T22:19:26.846Z,3.30
2022-11-07T22:21:56.071Z,2.70
2022-11-07T22:24:27.338Z,3.25
2022-11-07T22:26:57.319Z,2.90
2022-11-07T22:29:26.964Z,2.72
2022-11-07T22:31:57.245Z,3.05
2022-11-07T22:34:27.249Z,2.85
2022-11-07T22:36:57.227Z,2.60
2022-11-07T22:39:26.775Z,3.15
2022-11-07T22:41:56.497Z,2.75
2022-11-07T22:44:26.300Z,3.08
2022-11-07T22:46:56.482Z,3.00
2022-11-07T22:49:26.303Z,2.78
2022-11-07T22:51:56.029Z,3.50
2022-11-07T22:54:25.785Z,3.38
2022-11-07T22:56:55.636Z,3.00
2022-11-07T22:59:25.430Z,3.95
2022-11-07T23:01:55.220Z,4.40
2022-11-07T23:04:29.984Z,2.78
2022-11-07T23:07:01.684Z,3.03
2022-11-07T23:09:31.631Z,3.28
2022-11-07T23:12:01.218Z,3.78
2022-11-07T23:14:28.417Z,3.97
2022-11-07T23:16:57.249Z,2.67
2022-11-07T23:19:27.497Z,3.22
2022-11-07T23:21:57.547Z,2.92
2022-11-07T23:24:27.160Z,3.00
2022-11-07T23:26:57.670Z,3.38
2022-11-07T23:29:27.336Z,2.80
2022-11-07T23:31:57.117Z,3.78
2022-11-07T23:34:26.996Z,2.65
2022-11-07T23:36:56.704Z,3.13
2022-11-07T23:39:26.629Z,3.17
2022-11-07T23:41:56.546Z,3.25
2022-11-07T23:44:26.309Z,3.13
2022-11-07T23:47:15.017Z,2.63
2022-11-07T23:50:03.499Z,3.58
2022-11-07T23:52:33.314Z,3.55
2022-11-07T23:55:21.495Z,3.50
2022-11-07T23:58:10.409Z,3.30
